createdAt,value
2023-02-11T00:00:42.595Z,84.1
2023-02-11T00:01:42.577Z,84.2
2023-02-11T00:02:42.569Z,84.2
2023-02-11T00:03:42.689Z,84.2
2023-02-11T00:04:42.593Z,84.3
2023-02-11T00:05:42.590Z,84.4
2023-02-11T00:06:42.597Z,84.3
2023-02-11T00:07:42.651Z,84.4
2023-02-11T00:08:42.606Z,84.6
2023-02-11T00:09:42.642Z,84.5
2023-02-11T00:10:42.632Z,84.6
2023-02-11T00:11:42.625Z,84.6
2023-02-11T00:12:42.636Z,84.5
2023-02-11T00:13:42.666Z,84.5
2023-02-11T00:14:42.654Z,84.4
2023-02-11T00:15:42.666Z,84.6
2023-02-11T00:16:42.959Z,84.8
2023-02-11T00:17:42.676Z,85.1
2023-02-11T00:18:42.737Z,85.4
2023-02-11T00:19:42.749Z,85.7
2023-02-11T00:20:42.726Z,86.3
2023-02-11T00:21:42.725Z,86.6
2023-02-11T00:22:42.774Z,86.9
2023-02-11T00:23:42.792Z,87.2
2023-02-11T00:24:42.742Z,87.5
2023-02-11T00:25:42.784Z,87.6
2023-02-11T00:26:42.748Z,88.0
2023-02-11T00:27:42.750Z,88.1
2023-02-11T00:28:42.756Z,88.2
2023-02-11T00:29:42.767Z,88.3
2023-02-11T00:30:43.354Z,88.3
2023-02-11T00:31:43.426Z,88.6
2023-02-11T00:32:42.827Z,88.6
2023-02-11T00:33:42.887Z,89.0
2023-02-11T00:34:42.812Z,89.2
2023-02-11T00:35:42.805Z,89.4
2023-02-11T00:36:42.818Z,89.5
2023-02-11T00:37:42.831Z,89.6
2023-02-11T00:38:42.837Z,89.7
2023-02-11T00:39:42.862Z,89.7
2023-02-11T00:40:42.843Z,89.8
2023-02-11T00:41:42.844Z,90.0
2023-02-11T00:42:42.855Z,90.2
2023-02-11T00:43:42.876Z,90.3
2023-02-11T00:44:42.877Z,90.5
2023-02-11T00:45:42.881Z,90.7
2023-02-11T00:46:43.309Z,90.7
2023-02-11T00:47:42.898Z,90.7
2023-02-11T00:48:42.902Z,90.6
2023-02-11T00:49:42.945Z,90.7
2023-02-11T00:50:42.925Z,90.6
2023-02-11T00:51:42.943Z,90.6
2023-02-11T00:52:42.940Z,90.7
2023-02-11T00:53:42.966Z,90.7
2023-02-11T00:54:42.972Z,90.8
2023-02-11T00:55:43.014Z,90.9
2023-02-11T00:56:43.011Z,91.0
2023-02-11T00:57:43.023Z,91.2
2023-02-11T00:58:42.982Z,91.2
2023-02-11T00:59:43.029Z,91.2
2023-02-11T01:00:43.027Z,91.3
2023-02-11T01:01:43.414Z,91.4
2023-02-11T01:02:43.034Z,91.5
2023-02-11T01:03:43.028Z,91.6
2023-02-11T01:04:43.056Z,91.7
2023-02-11T01:05:43.050Z,91.9
2023-02-11T01:06:43.056Z,91.9
2023-02-11T01:07:43.058Z,91.9
2023-02-11T01:08:43.097Z,91.9
2023-02-11T01:09:43.080Z,91.8
2023-02-11T01:10:43.081Z,91.8
2023-02-11T01:11:43.088Z,91.7
2023-02-11T01:12:43.103Z,91.6
2023-02-11T01:13:43.143Z,91.6
2023-02-11T01:14:43.121Z,91.6
2023-02-11T01:15:43.273Z,91.7
2023-02-11T01:16:43.135Z,91.6
2023-02-11T01:17:43.155Z,91.6
2023-02-11T01:18:43.155Z,91.5
2023-02-11T01:19:43.187Z,91.6
2023-02-11T01:20:43.169Z,91.6
2023-02-11T01:21:43.191Z,91.6
2023-02-11T01:22:43.192Z,91.6
2023-02-11T01:23:43.209Z,91.7
2023-02-11T01:24:43.221Z,91.7
2023-02-11T01:25:43.223Z,91.7
2023-02-11T01:26:43.227Z,91.7
2023-02-11T01:27:43.242Z,91.8
2023-02-11T01:28:43.250Z,91.9
2023-02-11T01:29:43.254Z,91.9
2023-02-11T01:30:43.362Z,91.9
2023-02-11T01:31:43.391Z,91.9
2023-02-11T01:32:43.285Z,91.8
2023-02-11T01:33:43.377Z,91.8
2023-02-11T01:34:43.290Z,91.9
2023-02-11T01:35:43.321Z,91.9
2023-02-11T01:36:43.311Z,91.9
2023-02-11T01:37:43.324Z,91.9
2023-02-11T01:38:43.326Z,92.0
2023-02-11T01:39:43.341Z,92.0
2023-02-11T01:40:43.367Z,92.1
2023-02-11T01:41:43.364Z,92.1
2023-02-11T01:42:43.364Z,92.1
2023-02-11T01:43:43.400Z,92.0
2023-02-11T01:44:43.415Z,92.0
2023-02-11T01:45:43.399Z,92.2
2023-02-11T01:46:43.574Z,92.3
2023-02-11T01:47:43.416Z,92.4
2023-02-11T01:48:43.424Z,92.5
2023-02-11T01:49:43.428Z,92.5
2023-02-11T02:07:43.985Z,93.5
2023-02-11T02:08:43.657Z,93.5
2023-02-11T02:09:43.614Z,93.5
2023-02-11T02:10:43.669Z,93.6
2023-02-11T02:11:43.637Z,93.7
2023-02-11T02:12:43.637Z,93.7
2023-02-11T02:13:43.646Z,93.8
2023-02-11T02:14:43.676Z,93.8
2023-02-11T02:15:43.820Z,93.8
2023-02-11T02:16:43.673Z,93.9
2023-02-11T02:17:43.670Z,94.0
2023-02-11T02:18:43.710Z,94.1
2023-02-11T02:19:43.701Z,94.2
2023-02-11T02:20:43.691Z,94.3
2023-02-11T02:21:43.706Z,94.3
2023-02-11T02:22:43.725Z,94.4
2023-02-11T02:23:43.721Z,94.5
2023-02-11T02:24:43.728Z,94.6
2023-02-11T02:25:43.746Z,94.6
2023-02-11T02:26:43.744Z,94.7
2023-02-11T02:27:43.754Z,94.8
2023-02-11T02:28:43.773Z,94.8
2023-02-11T02:29:43.795Z,94.9
2023-02-11T02:30:43.924Z,94.8
2023-02-11T02:31:43.984Z,94.8
2023-02-11T02:32:43.814Z,94.9
2023-02-11T02:33:43.806Z,94.8
2023-02-11T02:34:43.826Z,94.9
2023-02-11T02:35:43.841Z,94.9
2023-02-11T02:36:43.869Z,94.9
2023-02-11T02:37:43.846Z,95.0
2023-02-11T02:38:43.868Z,95.0
2023-02-11T02:39:43.872Z,95.1
2023-02-11T02:40:43.881Z,95.0
2023-02-11T02:41:43.891Z,95.0
2023-02-11T02:58:47.551Z,94.8
2023-02-11T02:59:44.044Z,94.7
2023-02-11T03:00:44.512Z,94.8
2023-02-11T03:01:44.043Z,94.7
2023-02-11T03:02:44.052Z,94.7
2023-02-11T03:03:44.423Z,94.7
2023-02-11T03:04:44.094Z,94.6
2023-02-11T03:05:44.079Z,94.5
2023-02-11T03:06:44.111Z,94.5
2023-02-11T03:07:44.113Z,94.4
2023-02-11T03:08:44.129Z,94.5
2023-02-11T03:09:44.133Z,94.5
2023-02-11T03:10:44.138Z,94.5
2023-02-11T03:11:44.131Z,94.4
2023-02-11T03:12:44.154Z,94.4
2023-02-11T03:13:44.194Z,94.4
2023-02-11T03:14:44.194Z,94.3
2023-02-11T03:15:44.206Z,94.3
2023-02-11T03:16:44.198Z,94.3
2023-02-11T03:17:44.193Z,94.2
2023-02-11T03:18:44.212Z,94.2
2023-02-11T03:19:44.237Z,94.2
2023-02-11T03:20:44.236Z,94.2
2023-02-11T03:21:44.269Z,94.2
2023-02-11T03:22:44.251Z,94.3
2023-02-11T03:23:44.253Z,94.3
2023-02-11T03:24:44.292Z,94.4
2023-02-11T03:25:44.277Z,94.3
2023-02-11T03:26:44.267Z,94.3
2023-02-11T03:27:44.272Z,94.3
2023-02-11T03:28:44.280Z,94.2
2023-02-11T03:29:44.292Z,94.2
2023-02-11T03:30:44.448Z,94.2
2023-02-11T03:31:44.818Z,94.2
2023-02-11T03:32:44.326Z,94.2
2023-02-11T03:33:44.349Z,94.1
2023-02-11T03:34:44.335Z,94.0
2023-02-11T03:35:44.356Z,94.0
2023-02-11T03:36:44.357Z,94.0
2023-02-11T03:37:44.394Z,93.9
2023-02-11T03:38:44.381Z,93.9
2023-02-11T03:39:44.386Z,94.0
2023-02-11T03:40:44.401Z,94.0
2023-02-11T03:41:44.403Z,94.1
2023-02-11T03:42:44.432Z,94.0
2023-02-11T03:43:44.414Z,94.0
2023-02-11T03:44:44.426Z,93.9
2023-02-11T03:45:44.629Z,93.9
2023-02-11T03:46:44.446Z,93.9
2023-02-11T03:47:44.471Z,93.9
2023-02-11T03:48:44.472Z,93.9
2023-02-11T03:49:44.473Z,93.8
2023-02-11T03:50:44.486Z,93.8
2023-02-11T03:51:44.514Z,93.7
2023-02-11T03:52:44.504Z,93.7
2023-02-11T03:53:44.555Z,93.7
2023-02-11T03:54:44.539Z,93.7
2023-02-11T03:55:44.561Z,93.7
2023-02-11T03:56:44.546Z,93.7
2023-02-11T03:57:44.557Z,93.7
2023-02-11T03:58:44.580Z,93.6
2023-02-11T03:59:44.577Z,93.5
2023-02-11T04:00:44.846Z,93.3
2023-02-11T04:01:44.608Z,93.3
2023-02-11T04:02:44.845Z,93.3
2023-02-11T04:03:44.621Z,93.2
2023-02-11T04:04:44.637Z,93.1
2023-02-11T04:05:44.656Z,93.1
2023-02-11T04:06:44.660Z,93.0
2023-02-11T04:07:44.667Z,92.9
2023-02-11T04:08:44.682Z,92.8
2023-02-11T04:09:44.708Z,92.8
2023-02-11T04:10:44.697Z,92.7
2023-02-11T04:11:44.706Z,92.7
2023-02-11T04:12:44.823Z,92.6
2023-02-11T04:13:44.723Z,92.6
2023-02-11T04:14:44.771Z,92.5
2023-02-11T04:15:49.284Z,92.3
2023-02-11T04:16:44.980Z,92.2
2023-02-11T04:17:44.796Z,92.2
2023-02-11T04:18:44.770Z,92.1
2023-02-11T04:19:44.781Z,92.1
2023-02-11T04:20:44.791Z,92.1
2023-02-11T04:21:44.824Z,92.1
2023-02-11T04:22:44.814Z,91.9
2023-02-11T04:23:44.826Z,92.0
2023-02-11T04:24:44.871Z,91.9
2023-02-11T04:25:44.859Z,91.9
2023-02-11T04:26:44.889Z,91.9
2023-02-11T04:27:44.860Z,91.8
2023-02-11T04:28:44.895Z,91.7
2023-02-11T04:29:44.886Z,91.7
2023-02-11T04:30:45.022Z,91.6
2023-02-11T04:31:45.060Z,91.6
2023-02-11T04:32:44.893Z,91.6
2023-02-11T04:33:44.920Z,91.5
2023-02-11T04:34:44.923Z,91.4
2023-02-11T04:35:44.956Z,91.4
2023-02-11T04:36:44.942Z,91.3
2023-02-11T04:37:44.964Z,91.2
2023-02-11T04:38:45.016Z,91.2
2023-02-11T04:39:44.968Z,91.2
2023-02-11T04:40:45.015Z,91.2
2023-02-11T04:41:44.983Z,91.1
2023-02-11T04:42:45.003Z,91.1
2023-02-11T04:43:45.000Z,91.0
2023-02-11T04:44:45.019Z,91.0
2023-02-11T04:45:45.236Z,91.0
2023-02-11T04:46:45.033Z,90.9
2023-02-11T04:47:45.047Z,90.8
2023-02-11T04:48:45.056Z,90.8
2023-02-11T04:49:45.068Z,90.8
2023-02-11T04:50:45.088Z,90.8
2023-02-11T04:51:49.831Z,90.9
2023-02-11T04:52:45.089Z,90.8
2023-02-11T04:53:45.106Z,90.8
2023-02-11T04:54:45.131Z,90.9
2023-02-11T04:55:45.115Z,90.8
2023-02-11T04:56:45.136Z,90.9
2023-02-11T04:57:45.148Z,90.8
2023-02-11T04:58:45.133Z,90.8
2023-02-11T04:59:45.164Z,90.9
2023-02-11T05:00:45.196Z,91.1
2023-02-11T05:01:45.163Z,91.2
2023-02-11T05:02:45.194Z,91.3
2023-02-11T05:03:45.279Z,91.3
2023-02-11T05:04:45.365Z,91.3
2023-02-11T05:05:45.241Z,91.3
2023-02-11T05:06:45.234Z,91.4
2023-02-11T05:07:45.271Z,91.3
2023-02-11T05:08:45.304Z,91.4
2023-02-11T05:09:45.245Z,91.4
2023-02-11T05:10:45.245Z,91.5
2023-02-11T05:11:45.254Z,91.6
2023-02-11T05:12:45.268Z,91.8
2023-02-11T05:13:45.303Z,92.0
2023-02-11T05:14:45.283Z,92.1
2023-02-11T05:15:45.309Z,92.3
2023-02-11T05:16:45.493Z,92.4
2023-02-11T05:17:45.312Z,92.6
2023-02-11T05:18:45.350Z,92.7
2023-02-11T05:19:45.346Z,92.9
2023-02-11T05:20:45.356Z,93.1
2023-02-11T05:22:03.782Z,93.2
2023-02-11T05:22:45.350Z,93.3
2023-02-11T05:23:45.365Z,93.4
2023-02-11T05:24:45.371Z,93.5
2023-02-11T05:25:45.381Z,93.5
2023-02-11T05:26:45.396Z,93.6
2023-02-11T05:27:45.409Z,93.7
2023-02-11T05:28:45.410Z,93.7
2023-02-11T05:29:45.431Z,93.7
2023-02-11T05:30:45.575Z,93.7
2023-02-11T05:31:45.433Z,93.8
2023-02-11T05:32:45.475Z,93.9
2023-02-11T05:33:45.474Z,94.0
2023-02-11T05:34:45.466Z,94.1
2023-02-11T05:35:45.485Z,94.1
2023-02-11T05:36:45.505Z,94.1
2023-02-11T05:37:45.491Z,94.1
2023-02-11T05:38:45.506Z,94.2
2023-02-11T05:39:45.526Z,94.2
2023-02-11T05:40:45.520Z,94.3
2023-02-11T05:41:45.537Z,94.4
2023-02-11T05:42:45.568Z,94.4
2023-02-11T05:43:45.558Z,94.5
2023-02-11T05:44:45.575Z,94.6
2023-02-11T05:45:45.571Z,94.7
2023-02-11T05:46:45.901Z,94.8
2023-02-11T05:47:45.600Z,94.8
2023-02-11T05:48:45.599Z,94.8
2023-02-11T05:49:45.606Z,94.9
2023-02-11T05:50:45.681Z,94.9
2023-02-11T05:51:45.869Z,95.0
2023-02-11T05:52:45.993Z,94.9
2023-02-11T05:53:45.637Z,94.9
2023-02-11T05:54:45.667Z,94.9
2023-02-11T05:55:45.671Z,94.9
2023-02-11T05:56:45.844Z,94.9
2023-02-11T05:57:45.682Z,94.8
2023-02-11T05:58:45.691Z,94.8
2023-02-11T05:59:45.709Z,94.8
2023-02-11T06:00:45.725Z,94.6
2023-02-11T06:01:45.740Z,94.6
2023-02-11T06:02:45.884Z,94.6
2023-02-11T06:03:45.950Z,94.7
2023-02-11T06:04:45.763Z,94.6
2023-02-11T06:05:45.852Z,94.6
2023-02-11T06:06:45.786Z,94.6
2023-02-11T06:07:45.793Z,94.6
2023-02-11T06:08:45.794Z,94.6
2023-02-11T06:09:45.788Z,94.5
2023-02-11T06:10:45.807Z,94.5
2023-02-11T06:11:45.807Z,94.5
2023-02-11T06:12:45.824Z,94.5
2023-02-11T06:13:45.823Z,94.5
2023-02-11T06:14:45.837Z,94.4
2023-02-11T06:15:45.998Z,94.4
2023-02-11T06:16:45.878Z,94.4
2023-02-11T06:17:45.862Z,94.3
2023-02-11T06:18:45.874Z,94.2
2023-02-11T06:19:45.877Z,94.2
2023-02-11T06:20:45.881Z,94.1
2023-02-11T06:21:45.883Z,94.1
2023-02-11T06:22:45.893Z,94.0
2023-02-11T06:23:45.894Z,94.0
2023-02-11T06:25:02.493Z,93.9
2023-02-11T06:25:45.920Z,93.8
2023-02-11T06:26:45.955Z,93.8
2023-02-11T06:27:45.938Z,93.7
2023-02-11T06:28:46.332Z,93.7
2023-02-11T06:29:45.974Z,93.7
2023-02-11T06:30:46.194Z,93.7
2023-02-11T06:31:46.625Z,93.7
2023-02-11T06:32:47.171Z,93.7
2023-02-11T06:33:46.002Z,93.6
2023-02-11T06:34:46.018Z,93.6
2023-02-11T06:35:46.037Z,93.5
2023-02-11T06:36:46.038Z,93.5
2023-02-11T06:37:46.096Z,93.6
2023-02-11T06:38:46.068Z,93.5
2023-02-11T06:39:46.076Z,93.4
2023-02-11T06:40:46.080Z,93.5
2023-02-11T06:41:46.098Z,93.4
2023-02-11T06:42:46.111Z,93.5
2023-02-11T06:43:46.138Z,93.5
2023-02-11T06:44:46.127Z,93.6
2023-02-11T06:45:46.138Z,93.6
2023-02-11T06:46:46.318Z,93.7
2023-02-11T06:47:46.196Z,93.8
2023-02-11T06:48:46.170Z,93.8
2023-02-11T06:49:46.181Z,94.0
2023-02-11T06:50:46.216Z,94.2
2023-02-11T06:51:46.200Z,94.2
2023-02-11T06:52:46.239Z,94.3
2023-02-11T06:53:46.255Z,94.3
2023-02-11T06:54:46.296Z,94.5
2023-02-11T06:55:46.239Z,94.6
2023-02-11T06:56:46.254Z,94.8
2023-02-11T06:57:46.265Z,94.9
2023-02-11T06:58:46.262Z,94.9
2023-02-11T06:59:46.309Z,95.1
2023-02-11T07:00:46.295Z,95.2
2023-02-11T07:01:46.469Z,95.2
2023-02-11T07:02:46.484Z,95.3
2023-02-11T07:03:46.339Z,95.3
2023-02-11T07:04:46.457Z,95.4
2023-02-11T07:05:46.359Z,95.5
2023-02-11T07:06:46.355Z,95.5
2023-02-11T07:07:46.358Z,95.5
2023-02-11T07:08:46.402Z,95.6
2023-02-11T07:09:46.382Z,95.6
2023-02-11T07:10:46.391Z,95.6
2023-02-11T07:11:46.397Z,95.7
2023-02-11T07:12:46.415Z,95.7
2023-02-11T07:13:46.417Z,95.7
2023-02-11T07:14:46.437Z,95.8
2023-02-11T07:15:46.588Z,95.8
2023-02-11T07:16:46.454Z,95.8
2023-02-11T07:17:46.468Z,95.8
2023-02-11T07:18:46.482Z,95.8
2023-02-11T07:19:46.493Z,95.8
2023-02-11T07:20:46.471Z,95.9
2023-02-11T07:21:46.502Z,95.9
2023-02-11T07:22:46.504Z,96.0
2023-02-11T07:23:46.533Z,96.0
2023-02-11T07:24:46.522Z,96.0
2023-02-11T07:25:46.537Z,96.0
2023-02-11T07:26:46.561Z,96.1
2023-02-11T07:27:46.556Z,96.1
2023-02-11T07:28:46.579Z,96.1
2023-02-11T07:29:46.578Z,96.1
2023-02-11T07:30:46.706Z,96.1
2023-02-11T07:31:46.994Z,96.2
2023-02-11T07:32:46.646Z,96.2
2023-02-11T07:33:46.629Z,96.2
2023-02-11T07:34:46.885Z,96.2
2023-02-11T07:35:46.634Z,96.3
2023-02-11T07:36:46.694Z,96.3
2023-02-11T07:37:46.659Z,96.3
2023-02-11T07:38:46.674Z,96.3
2023-02-11T07:39:46.680Z,96.1
2023-02-11T07:40:46.678Z,96.1
2023-02-11T07:41:46.687Z,96.2
2023-02-11T07:42:46.695Z,96.1
2023-02-11T07:43:46.743Z,96.1
2023-02-11T07:44:50.817Z,96.2
2023-02-11T07:45:46.741Z,96.0
2023-02-11T07:46:46.867Z,96.1
2023-02-11T07:47:46.762Z,96.0
2023-02-11T07:48:46.773Z,96.1
2023-02-11T07:49:46.774Z,96.0
2023-02-11T07:50:46.826Z,95.9
2023-02-11T07:51:46.814Z,95.9
2023-02-11T07:52:46.813Z,95.9
2023-02-11T07:53:46.851Z,95.9
2023-02-11T07:54:46.827Z,96.0
2023-02-11T07:55:46.829Z,96.0
2023-02-11T07:56:46.854Z,96.0
2023-02-11T07:57:46.859Z,96.0
2023-02-11T07:58:46.898Z,95.9
2023-02-11T07:59:46.897Z,95.9
2023-02-11T08:00:47.093Z,95.9
2023-02-11T08:01:46.990Z,96.0
2023-02-11T08:02:46.921Z,96.0
2023-02-11T08:03:46.927Z,96.0
2023-02-11T08:04:46.948Z,95.9
2023-02-11T08:05:46.942Z,95.9
2023-02-11T08:06:46.948Z,95.9
2023-02-11T08:07:46.945Z,95.9
2023-02-11T08:08:46.961Z,95.9
2023-02-11T08:09:46.977Z,96.0
2023-02-11T08:10:47.046Z,95.9
2023-02-11T08:11:46.999Z,96.0
2023-02-11T08:12:47.012Z,96.0
2023-02-11T08:13:47.023Z,96.0
2023-02-11T08:14:47.014Z,95.9
2023-02-11T08:15:47.047Z,95.8
2023-02-11T08:16:47.163Z,95.8
2023-02-11T08:17:47.079Z,95.8
2023-02-11T08:18:47.074Z,95.8
2023-02-11T08:19:47.083Z,95.8
2023-02-11T08:20:47.093Z,95.8
2023-02-11T08:21:47.148Z,95.9
2023-02-11T08:22:47.121Z,95.8
2023-02-11T08:23:47.130Z,95.8
2023-02-11T08:24:47.137Z,95.7
2023-02-11T08:25:47.140Z,95.8
2023-02-11T08:26:47.152Z,95.8
2023-02-11T08:27:47.165Z,95.8
2023-02-11T08:28:47.199Z,95.8
2023-02-11T08:29:47.201Z,95.8
2023-02-11T08:30:47.338Z,95.8
2023-02-11T08:31:47.533Z,95.8
2023-02-11T08:32:47.230Z,95.8
2023-02-11T08:33:47.239Z,95.8
2023-02-11T08:34:47.233Z,95.8
2023-02-11T08:35:47.254Z,95.7
2023-02-11T08:36:47.275Z,95.8
2023-02-11T08:37:47.278Z,95.8
2023-02-11T08:38:47.308Z,95.8
2023-02-11T08:39:47.334Z,95.8
2023-02-11T08:40:47.302Z,96.0
2023-02-11T08:41:47.316Z,95.9
2023-02-11T08:42:47.374Z,95.8
2023-02-11T08:43:47.360Z,95.8
2023-02-11T08:44:47.348Z,95.8
2023-02-11T08:45:47.567Z,95.7
2023-02-11T08:46:47.417Z,95.7
2023-02-11T08:47:47.370Z,95.7
2023-02-11T08:48:47.450Z,95.8
2023-02-11T08:49:47.412Z,95.8
2023-02-11T08:50:47.417Z,95.8
2023-02-11T08:51:47.448Z,95.8
2023-02-11T08:52:47.436Z,95.8
2023-02-11T08:53:47.438Z,95.9
2023-02-11T08:54:47.438Z,95.8
2023-02-11T08:55:47.455Z,95.7
2023-02-11T08:56:47.452Z,95.7
2023-02-11T08:57:47.463Z,95.6
2023-02-11T08:58:47.503Z,95.7
2023-02-11T08:59:47.488Z,95.7
2023-02-11T09:00:47.714Z,95.7
2023-02-11T09:01:47.982Z,95.6
2023-02-11T09:02:47.519Z,95.7
2023-02-11T09:03:47.544Z,95.7
2023-02-11T09:04:47.533Z,95.8
2023-02-11T09:05:47.581Z,95.6
2023-02-11T09:06:47.571Z,95.6
2023-02-11T09:07:47.581Z,95.6
2023-02-11T09:08:47.597Z,95.6
2023-02-11T09:09:47.649Z,95.5
2023-02-11T09:10:47.701Z,95.5
2023-02-11T09:11:47.610Z,95.5
2023-02-11T09:12:47.624Z,95.6
2023-02-11T09:13:47.659Z,95.6
2023-02-11T09:14:47.640Z,95.6
2023-02-11T09:15:47.680Z,95.6
2023-02-11T09:16:47.962Z,95.7
2023-02-11T09:17:47.682Z,95.7
2023-02-11T09:18:47.974Z,95.6
2023-02-11T09:19:47.697Z,95.6
2023-02-11T09:20:47.709Z,95.7
2023-02-11T09:21:47.735Z,95.6
2023-02-11T09:22:47.735Z,95.6
2023-02-11T09:23:48.113Z,95.5
2023-02-11T09:24:47.757Z,95.5
2023-02-11T09:25:47.771Z,95.6
2023-02-11T09:26:47.789Z,95.6
2023-02-11T09:27:47.790Z,95.4
2023-02-11T09:28:48.263Z,95.5
2023-02-11T09:29:47.847Z,95.5
2023-02-11T09:30:48.157Z,95.5
2023-02-11T09:31:48.359Z,95.4
2023-02-11T09:32:47.844Z,95.4
2023-02-11T09:33:48.186Z,95.4
2023-02-11T09:34:47.961Z,95.3
2023-02-11T09:35:47.865Z,95.3
2023-02-11T09:36:47.891Z,95.2
2023-02-11T09:37:47.906Z,95.0
2023-02-11T09:38:47.987Z,95.0
2023-02-11T09:39:47.913Z,95.0
2023-02-11T09:40:47.995Z,94.9
2023-02-11T09:41:47.963Z,94.9
2023-02-11T09:42:47.970Z,95.0
2023-02-11T09:43:47.958Z,95.1
2023-02-11T09:44:47.970Z,95.1
2023-02-11T09:45:48.121Z,95.1
2023-02-11T09:46:48.041Z,95.0
2023-02-11T09:47:48.012Z,95.1
2023-02-11T09:48:48.025Z,94.9
2023-02-11T09:49:48.038Z,95.0
2023-02-11T09:50:48.067Z,95.2
2023-02-11T09:51:48.044Z,95.3
2023-02-11T09:52:48.280Z,95.3
2023-02-11T09:53:48.070Z,95.3
2023-02-11T09:54:48.084Z,95.2
2023-02-11T09:55:48.106Z,95.2
2023-02-11T09:56:48.568Z,95.1
2023-02-11T09:57:48.145Z,95.0
2023-02-11T09:58:48.124Z,95.0
2023-02-11T09:59:48.125Z,95.2
2023-02-11T10:00:48.451Z,95.3
2023-02-11T10:01:48.556Z,95.2
2023-02-11T10:02:48.210Z,95.1
2023-02-11T10:03:48.197Z,95.1
2023-02-11T10:04:48.287Z,95.1
2023-02-11T10:05:48.225Z,95.1
2023-02-11T10:06:48.251Z,95.2
2023-02-11T10:07:48.230Z,95.2
2023-02-11T10:08:48.239Z,95.2
2023-02-11T10:09:48.370Z,95.3
2023-02-11T10:10:48.273Z,95.4
2023-02-11T10:11:48.268Z,95.4
2023-02-11T10:12:48.307Z,95.3
2023-02-11T10:13:48.329Z,95.4
2023-02-11T10:14:48.327Z,95.3
2023-02-11T10:15:48.498Z,95.4
2023-02-11T10:16:48.450Z,95.4
2023-02-11T10:17:48.353Z,95.5
2023-02-11T10:18:48.345Z,95.5
2023-02-11T10:19:48.367Z,95.5
2023-02-11T10:20:48.807Z,95.5
2023-02-11T10:21:48.383Z,95.5
2023-02-11T10:22:48.394Z,95.6
2023-02-11T10:23:48.420Z,95.7
2023-02-11T10:24:48.424Z,95.7
2023-02-11T10:25:48.438Z,95.6
2023-02-11T10:26:48.451Z,95.5
2023-02-11T10:27:48.459Z,95.6
2023-02-11T10:28:48.505Z,95.7
2023-02-11T10:29:48.498Z,95.6
2023-02-11T10:30:49.434Z,95.5
2023-02-11T10:31:48.886Z,95.4
2023-02-11T10:32:48.539Z,95.4
2023-02-11T10:33:48.531Z,95.6
2023-02-11T10:34:48.540Z,95.6
2023-02-11T10:35:48.558Z,95.7
2023-02-11T10:36:48.559Z,95.8
2023-02-11T10:37:48.572Z,95.9
2023-02-11T10:38:48.606Z,95.7
2023-02-11T10:39:48.603Z,95.9
2023-02-11T10:40:49.628Z,95.9
2023-02-11T10:41:48.609Z,95.8
2023-02-11T10:42:48.642Z,95.9
2023-02-11T10:43:48.652Z,96.0
2023-02-11T10:44:48.653Z,96.0
2023-02-11T10:45:48.674Z,96.1
2023-02-11T10:46:48.829Z,96.2
2023-02-11T10:47:48.697Z,96.0
2023-02-11T10:48:48.700Z,96.1
2023-02-11T10:49:48.721Z,96.1
2023-02-11T10:50:49.692Z,96.2
2023-02-11T10:51:48.737Z,96.3
2023-02-11T10:52:48.750Z,96.3
2023-02-11T10:53:48.759Z,96.1
2023-02-11T10:54:48.782Z,96.2
2023-02-11T10:55:48.783Z,96.2
2023-02-11T10:56:48.796Z,96.1
2023-02-11T10:57:48.803Z,95.9
2023-02-11T10:58:48.821Z,95.8
2023-02-11T10:59:48.814Z,95.9
2023-02-11T11:00:49.920Z,96.0
2023-02-11T11:01:48.943Z,95.9
2023-02-11T11:02:48.844Z,95.9
2023-02-11T11:03:48.859Z,95.7
2023-02-11T11:04:49.183Z,95.7
2023-02-11T11:05:48.884Z,95.8
2023-02-11T11:06:48.882Z,95.8
2023-02-11T11:07:48.910Z,95.7
2023-02-11T11:08:48.936Z,95.7
2023-02-11T11:09:48.931Z,95.6
2023-02-11T11:10:50.008Z,95.6
2023-02-11T11:11:48.954Z,95.4
2023-02-11T11:12:49.072Z,95.4
2023-02-11T11:13:48.969Z,95.4
2023-02-11T11:14:48.986Z,95.5
2023-02-11T11:15:49.116Z,95.5
2023-02-11T11:16:49.032Z,95.6
2023-02-11T11:17:49.035Z,95.7
2023-02-11T11:18:49.017Z,95.5
2023-02-11T11:19:49.044Z,95.5
2023-02-11T11:20:50.191Z,95.5
2023-02-11T11:21:49.148Z,95.4
2023-02-11T11:22:49.090Z,95.3
2023-02-11T11:23:49.100Z,95.3
2023-02-11T11:24:49.161Z,95.2
2023-02-11T11:25:49.100Z,95.2
2023-02-11T11:26:49.145Z,95.1
2023-02-11T11:27:49.143Z,95.0
2023-02-11T11:28:49.319Z,95.1
2023-02-11T11:29:49.153Z,95.1
2023-02-11T11:30:50.550Z,95.0
2023-02-11T11:31:49.520Z,95.0
2023-02-11T11:32:49.251Z,95.0
2023-02-11T11:33:49.290Z,94.9
2023-02-11T11:34:49.213Z,94.8
2023-02-11T11:35:49.217Z,94.8
2023-02-11T11:36:49.269Z,94.9
2023-02-11T11:37:49.277Z,94.7
2023-02-11T11:38:49.312Z,94.8
2023-02-11T11:39:49.337Z,94.7
2023-02-11T11:40:50.239Z,94.5
2023-02-11T11:41:49.300Z,94.4
2023-02-11T11:42:49.359Z,94.3
2023-02-11T11:43:49.355Z,94.1
2023-02-11T11:44:49.339Z,94.3
2023-02-11T11:45:49.353Z,94.6
2023-02-11T11:46:49.686Z,94.5
2023-02-11T11:47:49.358Z,94.6
2023-02-11T11:48:49.386Z,94.4
2023-02-11T11:49:49.383Z,94.2
2023-02-11T11:50:50.645Z,94.3
2023-02-11T11:51:49.386Z,94.4
2023-02-11T11:52:49.429Z,94.4
2023-02-11T11:53:49.405Z,94.4
2023-02-11T11:54:49.410Z,94.3
2023-02-11T11:55:49.451Z,94.2
2023-02-11T11:56:49.445Z,94.2
2023-02-11T11:57:49.506Z,94.2
2023-02-11T11:58:49.507Z,94.2
2023-02-11T11:59:49.471Z,94.1
2023-02-11T12:00:50.507Z,94.2
2023-02-11T12:01:49.680Z,94.3
2023-02-11T12:02:49.572Z,94.3
2023-02-11T12:03:49.520Z,94.3
2023-02-11T12:04:49.517Z,94.3
2023-02-11T12:05:49.513Z,94.4
2023-02-11T12:06:49.537Z,94.5
2023-02-11T12:07:49.531Z,94.7
2023-02-11T12:08:49.564Z,94.9
2023-02-11T12:09:49.566Z,95.0
2023-02-11T12:10:50.758Z,95.0
2023-02-11T12:11:49.605Z,95.1
2023-02-11T12:12:49.641Z,95.1
2023-02-11T12:13:49.623Z,95.2
2023-02-11T12:14:49.702Z,95.4
2023-02-11T12:15:49.661Z,95.5
2023-02-11T12:16:49.947Z,95.6
2023-02-11T12:17:49.656Z,95.7
2023-02-11T12:18:49.678Z,95.9
2023-02-11T12:19:49.683Z,96.0
2023-02-11T12:20:50.711Z,96.1
2023-02-11T12:21:49.685Z,96.2
2023-02-11T12:22:49.718Z,96.2
2023-02-11T12:23:49.737Z,96.2
2023-02-11T12:24:49.740Z,96.4
2023-02-11T12:25:49.761Z,96.3
2023-02-11T12:26:49.780Z,96.3
2023-02-11T12:27:49.799Z,96.4
2023-02-11T12:28:49.793Z,96.4
2023-02-11T12:29:49.831Z,96.4
2023-02-11T12:30:51.286Z,96.3
2023-02-11T12:31:50.093Z,96.3
2023-02-11T12:32:49.855Z,96.4
2023-02-11T12:33:49.896Z,96.5
2023-02-11T12:34:49.891Z,96.4
2023-02-11T12:35:49.967Z,96.4
2023-02-11T12:36:49.903Z,96.5
2023-02-11T12:37:49.926Z,96.4
2023-02-11T12:38:49.939Z,96.4
2023-02-11T12:39:49.945Z,96.5
2023-02-11T12:40:51.316Z,96.6
2023-02-11T12:41:49.950Z,96.5
2023-02-11T12:42:49.971Z,96.6
2023-02-11T12:43:49.987Z,96.6
2023-02-11T12:44:49.996Z,96.6
2023-02-11T12:45:50.095Z,96.5
2023-02-11T12:46:50.036Z,96.5
2023-02-11T12:47:50.028Z,96.5
2023-02-11T12:48:50.035Z,96.4
2023-02-11T12:49:50.068Z,96.4
2023-02-11T12:50:51.099Z,96.5
2023-02-11T12:51:50.081Z,96.5
2023-02-11T12:52:50.095Z,96.5
2023-02-11T12:53:50.100Z,96.4
2023-02-11T12:54:50.107Z,96.4
2023-02-11T12:55:50.130Z,96.3
2023-02-11T12:56:50.131Z,96.3
2023-02-11T12:57:50.136Z,96.3
2023-02-11T12:58:50.156Z,96.2
2023-02-11T12:59:50.213Z,96.2
2023-02-11T13:00:51.666Z,96.1
2023-02-11T13:01:50.207Z,96.0
2023-02-11T13:02:50.404Z,96.0
2023-02-11T13:03:50.227Z,96.0
2023-02-11T13:04:50.235Z,95.5
2023-02-11T13:05:50.250Z,95.5
2023-02-11T13:06:50.264Z,95.6
2023-02-11T13:07:50.270Z,95.6
2023-02-11T13:08:50.264Z,95.4
2023-02-11T13:09:50.280Z,95.4
2023-02-11T13:10:51.399Z,95.4
2023-02-11T13:11:50.297Z,95.5
2023-02-11T13:12:50.319Z,95.5
2023-02-11T13:13:50.343Z,95.5
2023-02-11T13:14:50.354Z,95.4
2023-02-11T13:15:50.356Z,95.4
2023-02-11T13:16:50.537Z,95.4
2023-02-11T13:17:50.385Z,95.3
2023-02-11T13:18:50.389Z,95.2
2023-02-11T13:19:50.387Z,95.2
2023-02-11T13:20:51.383Z,95.2
2023-02-11T13:21:50.400Z,95.1
2023-02-11T13:22:50.693Z,95.1
2023-02-11T13:23:50.433Z,95.2
2023-02-11T13:24:50.452Z,95.0
2023-02-11T13:25:50.461Z,95.0
2023-02-11T13:26:50.463Z,95.0
2023-02-11T13:27:50.478Z,94.9
2023-02-11T13:28:50.504Z,94.8
2023-02-11T13:29:50.493Z,94.7
2023-02-11T13:30:52.472Z,94.6
2023-02-11T13:31:50.811Z,94.3
2023-02-11T13:32:50.536Z,94.3
2023-02-11T13:33:50.559Z,94.3
2023-02-11T13:34:50.565Z,94.1
2023-02-11T13:35:50.578Z,94.0
2023-02-11T13:36:50.593Z,93.9
2023-02-11T13:37:50.740Z,93.9
2023-02-11T13:38:50.622Z,93.8
2023-02-11T13:39:50.640Z,93.8
2023-02-11T13:40:51.424Z,93.8
2023-02-11T13:41:53.047Z,93.9
2023-02-11T13:42:50.742Z,94.1
2023-02-11T13:43:50.678Z,94.1
2023-02-11T13:44:50.693Z,94.3
2023-02-11T13:45:50.814Z,94.3
2023-02-11T13:46:50.721Z,94.4
2023-02-11T13:47:52.854Z,94.3
2023-02-11T13:48:50.748Z,94.1
2023-02-11T13:49:50.750Z,94.0
2023-02-11T13:50:51.914Z,93.8
2023-02-11T13:51:50.763Z,94.0